VLG1QC LEBB-LEMG
Flight info
| Callsign | VLG1QC |
|---|---|
| Flight time | 1h 28m |
| Altitude | 31000 |
| Route | AMTOS L14 NEA DCT NONTU DCT ORBIS DCT DISKO DCT TLD DCT DOPEN DCT MONTO DCT CRISA DCT VULPE |
| Aircraft | A320/M-SDE3FGHIRWY/LB1 |
Departure
| Time | 2026-05-05 18:39 |
|---|---|
| Airport | Bilbao Airport (LEBB) |
Arrival
| Time | 2026-05-05 20:08 |
|---|---|
| Airport | Málaga-Costa del Sol Airport (LEMG) |
| Time | Latitude | Longitude | Altitude | Speed | Heading |
|---|---|---|---|---|---|
| 2026-05-05 18:21 | 43.30464 | -2.90741 | 132 ft | 0 kts | 27° |
| 2026-05-05 18:30 | 43.30449 | -2.90752 | 132 ft | 4 kts | 26° |
| 2026-05-05 18:30 | 43.30428 | -2.90770 | 132 ft | 4 kts | 51° |
| 2026-05-05 18:30 | 43.30416 | -2.90793 | 132 ft | 4 kts | 71° |
| 2026-05-05 18:30 | 43.30413 | -2.90827 | 132 ft | 4 kts | 92° |
| 2026-05-05 18:31 | 43.30413 | -2.90842 | 132 ft | 0 kts | 91° |
| 2026-05-05 18:34 | 43.30402 | -2.90763 | 132 ft | 11 kts | 111° |
| 2026-05-05 18:35 | 43.30371 | -2.90672 | 132 ft | 10 kts | 117° |
| 2026-05-05 18:35 | 43.30328 | -2.90592 | 132 ft | 14 kts | 137° |
| 2026-05-05 18:35 | 43.30236 | -2.90525 | 132 ft | 16 kts | 176° |
| 2026-05-05 18:35 | 43.30128 | -2.90562 | 132 ft | 15 kts | 155° |
| 2026-05-05 18:36 | 43.30080 | -2.90465 | 132 ft | 10 kts | 116° |
| 2026-05-05 18:36 | 43.30038 | -2.90351 | 132 ft | 15 kts | 117° |
| 2026-05-05 18:36 | 43.29998 | -2.90242 | 132 ft | 13 kts | 116° |
| 2026-05-05 18:36 | 43.29946 | -2.90103 | 132 ft | 16 kts | 116° |
| 2026-05-05 18:37 | 43.29902 | -2.89984 | 132 ft | 13 kts | 116° |
| 2026-05-05 18:37 | 43.29841 | -2.89815 | 132 ft | 24 kts | 116° |
| 2026-05-05 18:37 | 43.29772 | -2.89625 | 132 ft | 17 kts | 115° |
| 2026-05-05 18:37 | 43.29717 | -2.89499 | 132 ft | 14 kts | 135° |
| 2026-05-05 18:38 | 43.29652 | -2.89509 | 132 ft | 7 kts | 231° |
| 2026-05-05 18:38 | 43.29635 | -2.89602 | 132 ft | 12 kts | 257° |
| 2026-05-05 18:38 | 43.29624 | -2.89725 | 132 ft | 14 kts | 278° |
| 2026-05-05 18:38 | 43.29667 | -2.89857 | 132 ft | 17 kts | 296° |
| 2026-05-05 18:39 | 43.29783 | -2.90172 | 133 ft | 75 kts | 295° |
| 2026-05-05 18:39 | 43.30133 | -2.91141 | 132 ft | 147 kts | 296° |
| 2026-05-05 18:39 | 43.30625 | -2.92546 | 607 ft | 170 kts | 294° |
| 2026-05-05 18:39 | 43.31149 | -2.93996 | 1560 ft | 167 kts | 296° |
| 2026-05-05 18:40 | 43.31668 | -2.95387 | 2588 ft | 161 kts | 297° |
| 2026-05-05 18:40 | 43.32188 | -2.96730 | 3519 ft | 161 kts | 303° |
| 2026-05-05 18:40 | 43.33082 | -2.97802 | 4015 ft | 185 kts | 323° |
| 2026-05-05 18:40 | 43.34128 | -2.99010 | 4624 ft | 209 kts | 316° |
| 2026-05-05 18:41 | 43.35233 | -3.00491 | 5327 ft | 234 kts | 314° |
| 2026-05-05 18:41 | 43.36430 | -3.02141 | 6174 ft | 251 kts | 314° |
| 2026-05-05 18:41 | 43.37681 | -3.03862 | 7251 ft | 258 kts | 314° |
| 2026-05-05 18:41 | 43.38949 | -3.05592 | 8338 ft | 263 kts | 315° |
| 2026-05-05 18:42 | 43.40363 | -3.07209 | 9469 ft | 269 kts | 331° |
| 2026-05-05 18:42 | 43.42192 | -3.07862 | 10492 ft | 279 kts | 358° |
| 2026-05-05 18:42 | 43.44110 | -3.07271 | 11507 ft | 291 kts | 24° |
| 2026-05-05 18:42 | 43.45691 | -3.05472 | 12525 ft | 304 kts | 52° |
| 2026-05-05 18:43 | 43.46496 | -3.02756 | 13536 ft | 316 kts | 82° |
| 2026-05-05 18:43 | 43.46294 | -2.99652 | 14050 ft | 342 kts | 109° |
| 2026-05-05 18:43 | 43.44989 | -2.96840 | 14544 ft | 358 kts | 138° |
| 2026-05-05 18:43 | 43.42858 | -2.95056 | 15330 ft | 362 kts | 161° |
| 2026-05-05 18:44 | 43.40417 | -2.94169 | 16160 ft | 365 kts | 173° |
| 2026-05-05 18:44 | 43.37888 | -2.93737 | 17042 ft | 368 kts | 177° |
| 2026-05-05 18:44 | 43.35320 | -2.93420 | 17921 ft | 373 kts | 177° |
| 2026-05-05 18:44 | 43.32727 | -2.93389 | 18696 ft | 374 kts | 189° |
| 2026-05-05 18:45 | 43.30171 | -2.94076 | 19448 ft | 374 kts | 200° |
| 2026-05-05 18:45 | 43.27760 | -2.95401 | 20202 ft | 374 kts | 211° |
| 2026-05-05 18:45 | 43.25571 | -2.97322 | 20975 ft | 375 kts | 218° |
| 2026-05-05 18:45 | 43.23420 | -2.99365 | 21745 ft | 378 kts | 218° |
| 2026-05-05 18:46 | 43.21259 | -3.01448 | 22514 ft | 381 kts | 219° |
| 2026-05-05 18:46 | 43.19089 | -3.03557 | 23275 ft | 385 kts | 219° |
| 2026-05-05 18:46 | 43.16901 | -3.05687 | 23972 ft | 387 kts | 218° |
| 2026-05-05 18:46 | 43.14704 | -3.07826 | 24628 ft | 389 kts | 218° |
| 2026-05-05 18:47 | 43.12491 | -3.09981 | 25235 ft | 392 kts | 219° |
| 2026-05-05 18:47 | 43.10261 | -3.12153 | 25818 ft | 395 kts | 219° |
| 2026-05-05 18:47 | 43.08011 | -3.14343 | 26377 ft | 398 kts | 219° |
| 2026-05-05 18:47 | 43.05743 | -3.16546 | 26927 ft | 402 kts | 219° |
| 2026-05-05 18:48 | 43.03452 | -3.18767 | 27470 ft | 405 kts | 219° |
| 2026-05-05 18:48 | 43.01144 | -3.21006 | 27995 ft | 409 kts | 219° |
| 2026-05-05 18:48 | 42.98816 | -3.23252 | 28501 ft | 412 kts | 218° |
| 2026-05-05 18:48 | 42.96444 | -3.25492 | 29026 ft | 415 kts | 219° |
| 2026-05-05 18:49 | 42.94044 | -3.27715 | 29603 ft | 418 kts | 218° |
| 2026-05-05 18:49 | 42.91624 | -3.29936 | 30121 ft | 421 kts | 218° |
| 2026-05-05 18:49 | 42.89181 | -3.32176 | 30533 ft | 424 kts | 219° |
| 2026-05-05 18:49 | 42.86762 | -3.34398 | 30893 ft | 427 kts | 218° |
| 2026-05-05 18:50 | 42.84297 | -3.36669 | 31001 ft | 426 kts | 218° |
| 2026-05-05 18:50 | 42.81887 | -3.38883 | 31021 ft | 408 kts | 218° |
| 2026-05-05 18:50 | 42.77284 | -3.43117 | 31024 ft | 395 kts | 219° |
| 2026-05-05 18:51 | 42.72749 | -3.47320 | 31023 ft | 394 kts | 219° |
| 2026-05-05 18:51 | 42.68213 | -3.51511 | 31027 ft | 394 kts | 219° |
| 2026-05-05 18:52 | 42.63675 | -3.55679 | 31027 ft | 393 kts | 219° |
| 2026-05-05 18:52 | 42.59160 | -3.59810 | 31022 ft | 394 kts | 219° |
| 2026-05-05 18:53 | 42.54619 | -3.63963 | 30998 ft | 393 kts | 220° |
| 2026-05-05 18:53 | 42.50095 | -3.68104 | 31018 ft | 392 kts | 220° |
| 2026-05-05 18:54 | 42.45574 | -3.72229 | 31028 ft | 391 kts | 220° |
| 2026-05-05 18:54 | 42.41059 | -3.76336 | 31010 ft | 390 kts | 220° |
| 2026-05-05 18:55 | 42.36552 | -3.80424 | 31007 ft | 390 kts | 220° |
| 2026-05-05 18:55 | 42.32048 | -3.84508 | 30969 ft | 389 kts | 220° |
| 2026-05-05 18:56 | 42.27544 | -3.88582 | 30983 ft | 389 kts | 220° |
| 2026-05-05 18:56 | 42.23051 | -3.92649 | 30990 ft | 389 kts | 220° |
| 2026-05-05 18:57 | 42.18589 | -3.96685 | 30991 ft | 388 kts | 220° |
| 2026-05-05 18:57 | 42.14096 | -4.00730 | 30994 ft | 388 kts | 220° |
| 2026-05-05 18:58 | 42.09609 | -4.04760 | 30989 ft | 387 kts | 221° |
| 2026-05-05 18:58 | 42.05114 | -4.08754 | 30996 ft | 389 kts | 218° |
| 2026-05-05 18:59 | 42.02635 | -4.10316 | 30998 ft | 399 kts | 207° |
| 2026-05-05 18:59 | 41.99908 | -4.11230 | 30999 ft | 410 kts | 195° |
| 2026-05-05 18:59 | 41.94179 | -4.11903 | 30995 ft | 413 kts | 193° |
| 2026-05-05 19:00 | 41.88448 | -4.12549 | 30989 ft | 414 kts | 193° |
| 2026-05-05 19:00 | 41.82686 | -4.13208 | 30995 ft | 415 kts | 193° |
| 2026-05-05 19:01 | 41.76968 | -4.13863 | 31004 ft | 415 kts | 193° |
| 2026-05-05 19:01 | 41.71213 | -4.14514 | 31004 ft | 414 kts | 193° |
| 2026-05-05 19:02 | 41.65481 | -4.15159 | 31002 ft | 413 kts | 194° |
| 2026-05-05 19:02 | 41.59765 | -4.15797 | 31008 ft | 412 kts | 194° |
| 2026-05-05 19:03 | 41.54106 | -4.16431 | 31008 ft | 411 kts | 194° |
| 2026-05-05 19:03 | 41.48405 | -4.17077 | 30956 ft | 410 kts | 194° |
| 2026-05-05 19:04 | 41.42751 | -4.17712 | 30989 ft | 406 kts | 194° |
| 2026-05-05 19:04 | 41.37119 | -4.18352 | 30995 ft | 405 kts | 194° |
| 2026-05-05 19:05 | 41.31533 | -4.18976 | 30991 ft | 405 kts | 194° |
| 2026-05-05 19:05 | 41.25919 | -4.19604 | 30956 ft | 404 kts | 194° |
| 2026-05-05 19:06 | 41.20312 | -4.20236 | 30980 ft | 403 kts | 194° |
| 2026-05-05 19:06 | 41.14726 | -4.20866 | 30982 ft | 402 kts | 194° |
| 2026-05-05 19:07 | 41.09147 | -4.21491 | 30980 ft | 402 kts | 194° |
| 2026-05-05 19:07 | 41.03577 | -4.22104 | 30968 ft | 401 kts | 194° |
| 2026-05-05 19:08 | 40.98009 | -4.22717 | 30975 ft | 401 kts | 194° |
| 2026-05-05 19:08 | 40.92447 | -4.23332 | 30980 ft | 401 kts | 194° |
| 2026-05-05 19:09 | 40.86933 | -4.23940 | 30979 ft | 400 kts | 194° |
| 2026-05-05 19:09 | 40.81380 | -4.24560 | 30953 ft | 400 kts | 194° |
| 2026-05-05 19:10 | 40.75830 | -4.25174 | 30960 ft | 400 kts | 194° |
| 2026-05-05 19:10 | 40.70291 | -4.25784 | 30966 ft | 399 kts | 194° |
| 2026-05-05 19:11 | 40.64752 | -4.26382 | 30963 ft | 399 kts | 194° |
| 2026-05-05 19:11 | 40.59211 | -4.26981 | 30967 ft | 400 kts | 194° |
| 2026-05-05 19:12 | 40.53680 | -4.27587 | 30958 ft | 398 kts | 194° |
| 2026-05-05 19:12 | 40.48165 | -4.28195 | 30953 ft | 399 kts | 194° |
| 2026-05-05 19:13 | 40.42635 | -4.28808 | 30952 ft | 399 kts | 194° |
| 2026-05-05 19:13 | 40.37104 | -4.29412 | 30945 ft | 399 kts | 193° |
| 2026-05-05 19:14 | 40.31598 | -4.30005 | 30962 ft | 400 kts | 193° |
| 2026-05-05 19:14 | 40.26058 | -4.30597 | 30954 ft | 399 kts | 193° |
| 2026-05-05 19:15 | 40.20534 | -4.31194 | 30950 ft | 398 kts | 193° |
| 2026-05-05 19:15 | 40.15016 | -4.31792 | 30925 ft | 398 kts | 193° |
| 2026-05-05 19:16 | 40.09503 | -4.32387 | 30929 ft | 397 kts | 193° |
| 2026-05-05 19:16 | 40.04000 | -4.32981 | 30933 ft | 397 kts | 193° |
| 2026-05-05 19:17 | 39.98502 | -4.33575 | 30935 ft | 396 kts | 193° |
| 2026-05-05 19:17 | 39.93054 | -4.34405 | 30925 ft | 392 kts | 197° |
| 2026-05-05 19:18 | 39.87692 | -4.35627 | 30938 ft | 390 kts | 198° |
| 2026-05-05 19:18 | 39.82347 | -4.36884 | 30946 ft | 390 kts | 198° |
| 2026-05-05 19:19 | 39.77026 | -4.38060 | 30942 ft | 390 kts | 197° |
| 2026-05-05 19:19 | 39.71659 | -4.39208 | 30921 ft | 390 kts | 197° |
| 2026-05-05 19:20 | 39.66298 | -4.40339 | 30931 ft | 390 kts | 197° |
| 2026-05-05 19:20 | 39.60949 | -4.41475 | 30936 ft | 389 kts | 197° |
| 2026-05-05 19:21 | 39.55608 | -4.42619 | 30944 ft | 389 kts | 197° |
| 2026-05-05 19:21 | 39.50272 | -4.43749 | 30947 ft | 389 kts | 197° |
| 2026-05-05 19:22 | 39.44963 | -4.44868 | 30941 ft | 389 kts | 197° |
| 2026-05-05 19:22 | 39.39620 | -4.46007 | 30949 ft | 388 kts | 197° |
| 2026-05-05 19:23 | 39.34288 | -4.47142 | 30957 ft | 388 kts | 197° |
| 2026-05-05 19:23 | 39.28962 | -4.48262 | 30948 ft | 388 kts | 197° |
| 2026-05-05 19:24 | 39.23676 | -4.49376 | 30934 ft | 387 kts | 198° |
| 2026-05-05 19:24 | 39.18363 | -4.50502 | 30947 ft | 386 kts | 198° |
| 2026-05-05 19:25 | 39.13053 | -4.51616 | 30933 ft | 386 kts | 198° |
| 2026-05-05 19:25 | 39.07752 | -4.52723 | 30957 ft | 386 kts | 198° |
| 2026-05-05 19:26 | 39.03348 | -4.53647 | 30916 ft | 385 kts | 198° |
| 2026-05-05 19:26 | 38.97186 | -4.54947 | 30966 ft | 386 kts | 198° |
| 2026-05-05 19:27 | 38.92745 | -4.55881 | 30975 ft | 386 kts | 198° |
| 2026-05-05 19:27 | 38.87479 | -4.56977 | 30970 ft | 385 kts | 198° |
| 2026-05-05 19:28 | 38.82192 | -4.58079 | 30962 ft | 385 kts | 198° |
| 2026-05-05 19:28 | 38.76904 | -4.59179 | 30951 ft | 385 kts | 198° |
| 2026-05-05 19:29 | 38.71617 | -4.60280 | 30950 ft | 385 kts | 198° |
| 2026-05-05 19:29 | 38.66321 | -4.61377 | 30955 ft | 385 kts | 198° |
| 2026-05-05 19:30 | 38.61027 | -4.62470 | 30957 ft | 385 kts | 198° |
| 2026-05-05 19:30 | 38.55736 | -4.63562 | 30921 ft | 385 kts | 197° |
| 2026-05-05 19:31 | 38.50429 | -4.64662 | 30960 ft | 387 kts | 197° |
| 2026-05-05 19:31 | 38.45117 | -4.65762 | 30966 ft | 387 kts | 197° |
| 2026-05-05 19:32 | 38.39801 | -4.66851 | 30971 ft | 386 kts | 197° |
| 2026-05-05 19:32 | 38.34522 | -4.67929 | 30969 ft | 386 kts | 197° |
| 2026-05-05 19:33 | 38.29218 | -4.69020 | 30969 ft | 386 kts | 197° |
| 2026-05-05 19:33 | 38.23919 | -4.70112 | 30958 ft | 386 kts | 197° |
| 2026-05-05 19:34 | 38.18612 | -4.71204 | 30952 ft | 386 kts | 197° |
| 2026-05-05 19:35 | 38.10658 | -4.72831 | 30885 ft | 387 kts | 197° |
| 2026-05-05 19:35 | 38.07999 | -4.73372 | 30609 ft | 387 kts | 197° |
| 2026-05-05 19:35 | 38.05334 | -4.73914 | 30363 ft | 388 kts | 197° |
| 2026-05-05 19:35 | 38.02694 | -4.74452 | 30126 ft | 389 kts | 197° |
| 2026-05-05 19:36 | 38.00016 | -4.74999 | 29858 ft | 390 kts | 197° |
| 2026-05-05 19:36 | 37.97329 | -4.75547 | 29577 ft | 391 kts | 197° |
| 2026-05-05 19:36 | 37.94644 | -4.76095 | 29278 ft | 391 kts | 197° |
| 2026-05-05 19:36 | 37.91956 | -4.76640 | 28997 ft | 390 kts | 196° |
| 2026-05-05 19:37 | 37.89282 | -4.77177 | 28720 ft | 389 kts | 196° |
| 2026-05-05 19:37 | 37.86615 | -4.77714 | 28442 ft | 388 kts | 196° |
| 2026-05-05 19:37 | 37.83957 | -4.78254 | 28138 ft | 386 kts | 195° |
| 2026-05-05 19:37 | 37.81307 | -4.78794 | 27884 ft | 385 kts | 195° |
| 2026-05-05 19:38 | 37.78659 | -4.79318 | 27616 ft | 385 kts | 193° |
| 2026-05-05 19:38 | 37.75983 | -4.79422 | 27154 ft | 387 kts | 182° |
| 2026-05-05 19:38 | 37.73318 | -4.78882 | 26641 ft | 390 kts | 171° |
| 2026-05-05 19:38 | 37.70710 | -4.77958 | 26131 ft | 387 kts | 170° |
| 2026-05-05 19:39 | 37.68128 | -4.77041 | 25617 ft | 384 kts | 170° |
| 2026-05-05 19:39 | 37.65565 | -4.76137 | 25125 ft | 380 kts | 170° |
| 2026-05-05 19:39 | 37.63027 | -4.75247 | 24617 ft | 378 kts | 170° |
| 2026-05-05 19:39 | 37.60501 | -4.74367 | 24119 ft | 375 kts | 170° |
| 2026-05-05 19:40 | 37.57988 | -4.73497 | 23603 ft | 374 kts | 169° |
| 2026-05-05 19:40 | 37.55485 | -4.72632 | 23030 ft | 372 kts | 169° |
| 2026-05-05 19:40 | 37.52998 | -4.71773 | 22511 ft | 369 kts | 169° |
| 2026-05-05 19:40 | 37.50527 | -4.70917 | 21998 ft | 367 kts | 169° |
| 2026-05-05 19:41 | 37.48069 | -4.70065 | 21484 ft | 365 kts | 169° |
| 2026-05-05 19:41 | 37.45626 | -4.69216 | 20975 ft | 364 kts | 169° |
| 2026-05-05 19:41 | 37.43191 | -4.68367 | 20461 ft | 363 kts | 169° |
| 2026-05-05 19:41 | 37.40798 | -4.67533 | 20037 ft | 359 kts | 169° |
| 2026-05-05 19:42 | 37.38442 | -4.66612 | 19810 ft | 353 kts | 162° |
| 2026-05-05 19:42 | 37.36270 | -4.65209 | 19503 ft | 350 kts | 153° |
| 2026-05-05 19:42 | 37.34184 | -4.63662 | 19276 ft | 346 kts | 154° |
| 2026-05-05 19:42 | 37.32107 | -4.62130 | 19105 ft | 345 kts | 154° |
| 2026-05-05 19:43 | 37.30041 | -4.60615 | 18837 ft | 343 kts | 154° |
| 2026-05-05 19:43 | 37.27941 | -4.59223 | 18545 ft | 338 kts | 162° |
| 2026-05-05 19:43 | 37.25718 | -4.58394 | 18266 ft | 331 kts | 174° |
| 2026-05-05 19:43 | 37.23446 | -4.58152 | 17971 ft | 325 kts | 184° |
| 2026-05-05 19:44 | 37.21189 | -4.58141 | 17699 ft | 324 kts | 184° |
| 2026-05-05 19:44 | 37.18939 | -4.58124 | 17430 ft | 323 kts | 184° |
| 2026-05-05 19:44 | 37.16700 | -4.58105 | 17162 ft | 322 kts | 184° |
| 2026-05-05 19:44 | 37.14458 | -4.58084 | 16883 ft | 321 kts | 184° |
| 2026-05-05 19:45 | 37.12230 | -4.58066 | 16626 ft | 320 kts | 184° |
| 2026-05-05 19:45 | 37.10008 | -4.58049 | 16359 ft | 319 kts | 184° |
| 2026-05-05 19:45 | 37.07823 | -4.58033 | 16097 ft | 317 kts | 184° |
| 2026-05-05 19:45 | 37.05617 | -4.58013 | 15814 ft | 317 kts | 184° |
| 2026-05-05 19:46 | 37.03417 | -4.57992 | 15491 ft | 315 kts | 184° |
| 2026-05-05 19:46 | 37.01229 | -4.57973 | 15175 ft | 314 kts | 184° |
| 2026-05-05 19:46 | 36.99045 | -4.57953 | 14857 ft | 313 kts | 184° |
| 2026-05-05 19:46 | 36.96873 | -4.57934 | 14544 ft | 312 kts | 183° |
| 2026-05-05 19:47 | 36.94712 | -4.57605 | 14229 ft | 316 kts | 169° |
| 2026-05-05 19:47 | 36.92668 | -4.56575 | 13906 ft | 320 kts | 153° |
| 2026-05-05 19:47 | 36.90886 | -4.54889 | 13564 ft | 323 kts | 138° |
| 2026-05-05 19:47 | 36.89298 | -4.52911 | 13248 ft | 321 kts | 138° |
| 2026-05-05 19:48 | 36.87720 | -4.50949 | 12967 ft | 319 kts | 138° |
| 2026-05-05 19:48 | 36.86148 | -4.49000 | 12652 ft | 318 kts | 138° |
| 2026-05-05 19:48 | 36.84581 | -4.47062 | 12329 ft | 316 kts | 138° |
| 2026-05-05 19:48 | 36.83045 | -4.45164 | 12178 ft | 306 kts | 138° |
| 2026-05-05 19:49 | 36.81559 | -4.43330 | 11909 ft | 294 kts | 138° |
| 2026-05-05 19:49 | 36.80604 | -4.42150 | 11680 ft | 289 kts | 138° |
| 2026-05-05 19:49 | 36.78694 | -4.39797 | 11348 ft | 288 kts | 139° |
| 2026-05-05 19:49 | 36.77280 | -4.38064 | 11102 ft | 280 kts | 139° |
| 2026-05-05 19:50 | 36.75903 | -4.36375 | 10855 ft | 275 kts | 139° |
| 2026-05-05 19:50 | 36.74542 | -4.34707 | 10617 ft | 275 kts | 139° |
| 2026-05-05 19:50 | 36.73057 | -4.33253 | 10373 ft | 269 kts | 154° |
| 2026-05-05 19:50 | 36.71403 | -4.32211 | 10142 ft | 266 kts | 158° |
| 2026-05-05 19:51 | 36.69747 | -4.31195 | 9919 ft | 264 kts | 158° |
| 2026-05-05 19:51 | 36.68095 | -4.30180 | 9806 ft | 265 kts | 158° |
| 2026-05-05 19:51 | 36.66444 | -4.29163 | 9651 ft | 265 kts | 158° |
| 2026-05-05 19:51 | 36.64791 | -4.28144 | 9437 ft | 265 kts | 158° |
| 2026-05-05 19:52 | 36.63145 | -4.27130 | 9199 ft | 264 kts | 158° |
| 2026-05-05 19:52 | 36.61580 | -4.25905 | 8968 ft | 269 kts | 143° |
| 2026-05-05 19:52 | 36.60307 | -4.24199 | 8808 ft | 270 kts | 131° |
| 2026-05-05 19:52 | 36.59126 | -4.22431 | 8651 ft | 269 kts | 133° |
| 2026-05-05 19:53 | 36.57919 | -4.20645 | 8483 ft | 269 kts | 132° |
| 2026-05-05 19:53 | 36.56700 | -4.18904 | 8326 ft | 266 kts | 134° |
| 2026-05-05 19:53 | 36.55437 | -4.17227 | 8161 ft | 266 kts | 136° |
| 2026-05-05 19:53 | 36.54155 | -4.15576 | 8002 ft | 264 kts | 136° |
| 2026-05-05 19:54 | 36.52871 | -4.13931 | 7836 ft | 266 kts | 137° |
| 2026-05-05 19:54 | 36.51606 | -4.12267 | 7680 ft | 263 kts | 134° |
| 2026-05-05 19:54 | 36.50374 | -4.10584 | 7509 ft | 265 kts | 134° |
| 2026-05-05 19:54 | 36.49147 | -4.08883 | 7346 ft | 264 kts | 134° |
| 2026-05-05 19:55 | 36.47917 | -4.07169 | 7196 ft | 266 kts | 134° |
| 2026-05-05 19:55 | 36.46693 | -4.05462 | 7034 ft | 262 kts | 133° |
| 2026-05-05 19:55 | 36.45490 | -4.03787 | 6880 ft | 260 kts | 133° |
| 2026-05-05 19:55 | 36.44273 | -4.02098 | 6715 ft | 261 kts | 133° |
| 2026-05-05 19:56 | 36.43077 | -4.00446 | 6544 ft | 257 kts | 133° |
| 2026-05-05 19:56 | 36.41890 | -3.98809 | 6378 ft | 254 kts | 133° |
| 2026-05-05 19:56 | 36.40569 | -3.97390 | 6192 ft | 252 kts | 156° |
| 2026-05-05 19:56 | 36.38882 | -3.96996 | 6025 ft | 247 kts | 189° |
| 2026-05-05 19:57 | 36.37329 | -3.97759 | 5854 ft | 240 kts | 220° |
| 2026-05-05 19:57 | 36.36496 | -3.98655 | 5740 ft | 239 kts | 226° |
| 2026-05-05 19:57 | 36.34886 | -4.00549 | 5516 ft | 237 kts | 237° |
| 2026-05-05 19:57 | 36.34337 | -4.02345 | 5345 ft | 216 kts | 271° |
| 2026-05-05 19:58 | 36.34648 | -4.04130 | 5207 ft | 215 kts | 301° |
| 2026-05-05 19:58 | 36.35575 | -4.05566 | 5068 ft | 212 kts | 313° |
| 2026-05-05 19:58 | 36.36561 | -4.06916 | 4925 ft | 210 kts | 313° |
| 2026-05-05 19:58 | 36.37542 | -4.08263 | 4794 ft | 212 kts | 313° |
| 2026-05-05 19:59 | 36.38536 | -4.09628 | 4646 ft | 215 kts | 313° |
| 2026-05-05 19:59 | 36.39529 | -4.10995 | 4522 ft | 211 kts | 313° |
| 2026-05-05 19:59 | 36.40509 | -4.12350 | 4391 ft | 210 kts | 313° |
| 2026-05-05 19:59 | 36.41491 | -4.13708 | 4264 ft | 213 kts | 313° |
| 2026-05-05 20:00 | 36.42485 | -4.15087 | 4135 ft | 214 kts | 313° |
| 2026-05-05 20:00 | 36.43474 | -4.16459 | 4012 ft | 209 kts | 313° |
| 2026-05-05 20:00 | 36.44433 | -4.17791 | 3881 ft | 205 kts | 313° |
| 2026-05-05 20:00 | 36.45383 | -4.19109 | 3758 ft | 204 kts | 313° |
| 2026-05-05 20:01 | 36.46335 | -4.20429 | 3630 ft | 205 kts | 313° |
| 2026-05-05 20:01 | 36.47282 | -4.21744 | 3508 ft | 203 kts | 313° |
| 2026-05-05 20:01 | 36.48208 | -4.23030 | 3385 ft | 202 kts | 313° |
| 2026-05-05 20:01 | 36.49146 | -4.24332 | 3256 ft | 203 kts | 313° |
| 2026-05-05 20:02 | 36.50086 | -4.25637 | 3143 ft | 201 kts | 313° |
| 2026-05-05 20:02 | 36.51025 | -4.26941 | 3050 ft | 203 kts | 313° |
| 2026-05-05 20:02 | 36.51963 | -4.28244 | 3011 ft | 201 kts | 314° |
| 2026-05-05 20:02 | 36.52898 | -4.29543 | 3011 ft | 202 kts | 313° |
| 2026-05-05 20:03 | 36.53822 | -4.30829 | 2999 ft | 193 kts | 313° |
| 2026-05-05 20:03 | 36.54677 | -4.32025 | 2999 ft | 178 kts | 313° |
| 2026-05-05 20:03 | 36.55486 | -4.33155 | 3007 ft | 174 kts | 313° |
| 2026-05-05 20:03 | 36.56287 | -4.34273 | 2935 ft | 173 kts | 314° |
| 2026-05-05 20:04 | 36.57086 | -4.35385 | 2764 ft | 172 kts | 314° |
| 2026-05-05 20:04 | 36.57884 | -4.36496 | 2556 ft | 172 kts | 314° |
| 2026-05-05 20:04 | 36.58685 | -4.37613 | 2338 ft | 174 kts | 314° |
| 2026-05-05 20:04 | 36.59481 | -4.38722 | 2111 ft | 175 kts | 313° |
| 2026-05-05 20:05 | 36.60287 | -4.39847 | 1892 ft | 172 kts | 313° |
| 2026-05-05 20:05 | 36.61077 | -4.40949 | 1670 ft | 165 kts | 313° |
| 2026-05-05 20:05 | 36.61816 | -4.41980 | 1438 ft | 159 kts | 311° |
| 2026-05-05 20:05 | 36.62539 | -4.42988 | 1230 ft | 153 kts | 310° |
| 2026-05-05 20:06 | 36.63231 | -4.43953 | 1025 ft | 144 kts | 309° |
| 2026-05-05 20:06 | 36.63869 | -4.44844 | 871 ft | 129 kts | 310° |
| 2026-05-05 20:06 | 36.64446 | -4.45650 | 693 ft | 120 kts | 308° |
| 2026-05-05 20:06 | 36.65009 | -4.46438 | 515 ft | 126 kts | 309° |
| 2026-05-05 20:07 | 36.65588 | -4.47246 | 361 ft | 124 kts | 309° |
| 2026-05-05 20:07 | 36.66158 | -4.48042 | 204 ft | 123 kts | 310° |
| 2026-05-05 20:07 | 36.66722 | -4.48826 | 60 ft | 121 kts | 310° |
| 2026-05-05 20:07 | 36.67221 | -4.49526 | 47 ft | 89 kts | 310° |
| 2026-05-05 20:08 | 36.67512 | -4.49944 | 52 ft | 39 kts | 311° |
| 2026-05-05 20:08 | 36.67649 | -4.50127 | 54 ft | 27 kts | 322° |
| 2026-05-05 20:08 | 36.67774 | -4.50212 | 51 ft | 17 kts | 338° |
| 2026-05-05 20:08 | 36.67889 | -4.50217 | 47 ft | 15 kts | 46° |
| 2026-05-05 20:09 | 36.67910 | -4.50113 | 41 ft | 13 kts | 76° |
| 2026-05-05 20:09 | 36.67875 | -4.50040 | 43 ft | 10 kts | 123° |
| 2026-05-05 20:09 | 36.67841 | -4.49965 | 42 ft | 10 kts | 122° |
| 2026-05-05 20:09 | 36.67797 | -4.49897 | 42 ft | 10 kts | 131° |
| 2026-05-05 20:10 | 36.67749 | -4.49831 | 42 ft | 10 kts | 132° |
| 2026-05-05 20:10 | 36.67724 | -4.49750 | 42 ft | 10 kts | 89° |
| 2026-05-05 20:10 | 36.67727 | -4.49661 | 42 ft | 10 kts | 69° |
| 2026-05-05 20:10 | 36.67756 | -4.49623 | 42 ft | 5 kts | 41° |
| 2026-05-05 20:11 | 36.67765 | -4.49613 | 42 ft | 0 kts | 41° |